Time;durP1;ratioP1;P1;durP2;ratioP2;P2;SDS_P1;SDS_P2;PMS_P1;PMS_P2;Temp;Humidity;BMP_temperature;BMP_pressure;BME280_temperature;BME280_humidity;BME280_pressure;Samples;Min_cycle;Max_cycle;Signal;HPM_P1;HPM_P2
2021/10/28 00:13:32;;;;;;;;;;;9.90;99.90;;;;;;5007137;28;20352;-70
2021/10/28 00:16:08;;;;;;;;;;;9.90;99.90;;;;;;5009987;28;19959;-70
2021/10/28 00:18:48;;;;;;;;;;;9.90;99.90;;;;;;5008328;28;19925;-70
2021/10/28 00:21:14;;;;;;;;;;;9.90;99.90;;;;;;5009818;28;19925;-70
2021/10/28 00:23:43;;;;;;;;;;;9.90;99.90;;;;;;5009218;28;19960;-70
2021/10/28 00:26:09;;;;;;;;;;;9.90;99.90;;;;;;5009798;28;19917;-70
2021/10/28 00:28:35;;;;;;;;;;;9.90;99.90;;;;;;5008499;28;19921;-70
2021/10/28 00:31:02;;;;;;;;;;;9.90;99.90;;;;;;5007295;28;19932;-70
2021/10/28 00:33:29;;;;;;;;;;;9.90;99.90;;;;;;5006737;28;19968;-70
2021/10/28 00:35:54;;;;;;;;;;;10.00;99.90;;;;;;5009588;28;20334;-70
2021/10/28 00:38:20;;;;;;;;;;;9.90;99.90;;;;;;5008760;28;19925;-70
2021/10/28 00:40:46;;;;;;;;;;;9.90;99.90;;;;;;4991827;28;19967;-70
2021/10/28 00:43:12;;;;;;;;;;;9.80;99.90;;;;;;5006755;28;19926;-70
2021/10/28 00:45:40;;;;;;;;;;;9.80;99.90;;;;;;5010036;28;20046;-70
2021/10/28 00:48:05;;;;;;;;;;;9.80;99.90;;;;;;5008728;28;19914;-70
2021/10/28 00:50:31;;;;;;;;;;;9.70;99.90;;;;;;5009297;28;19920;-70
2021/10/28 00:52:56;;;;;;;;;;;9.70;99.90;;;;;;5006936;28;19914;-70
2021/10/28 00:55:22;;;;;;;;;;;9.70;99.90;;;;;;5009492;28;19940;-70
2021/10/28 00:57:48;;;;;;;;;;;9.70;99.90;;;;;;4993004;28;19957;-70
2021/10/28 01:00:14;;;;;;;;;;;9.60;99.90;;;;;;5007206;28;19918;-70
2021/10/28 01:02:40;;;;;;;;;;;9.60;99.90;;;;;;5102214;22;19933;-74
2021/10/28 01:05:05;;;;;;;;;;;9.60;99.90;;;;;;5059937;28;19913;-74
2021/10/28 01:07:31;;;;;;;;;;;9.60;99.90;;;;;;5058125;28;19923;-75
2021/10/28 01:09:57;;;;;;;;;;;9.60;99.90;;;;;;5060257;28;19936;-75
2021/10/28 01:12:22;;;;;;;;;;;9.60;99.90;;;;;;5059879;28;19916;-74
2021/10/28 01:14:48;;;;;;;;;;;9.50;99.90;;;;;;5058467;28;20065;-74
2021/10/28 01:17:14;;;;;;;;;;;9.50;99.90;;;;;;5058266;28;20375;-74
2021/10/28 01:19:39;;;;;;;;;;;9.50;99.90;;;;;;5058446;28;19917;-75
2021/10/28 01:22:05;;;;;;;;;;;9.50;99.90;;;;;;5058312;28;19985;-75
2021/10/28 01:24:31;;;;;;;;;;;9.50;99.90;;;;;;5058981;28;19909;-74
2021/10/28 01:27:07;;;;;;;;;;;9.40;99.90;;;;;;5057679;28;20337;-74
2021/10/28 01:29:32;;;;;;;;;;;9.40;99.90;;;;;;5057816;28;20386;-74
2021/10/28 01:31:58;;;;;;;;;;;9.30;99.90;;;;;;5054497;28;19912;-74
2021/10/28 01:34:24;;;;;;;;;;;9.30;99.90;;;;;;5058061;28;19916;-74
2021/10/28 01:36:49;;;;;;;;;;;9.30;99.90;;;;;;5058642;28;19916;-74
2021/10/28 01:39:16;;;;;;;;;;;9.20;99.90;;;;;;5056238;28;19916;-74
2021/10/28 01:41:42;;;;;;;;;;;9.10;99.90;;;;;;5055285;28;19966;-74
2021/10/28 01:44:08;;;;;;;;;;;9.10;99.90;;;;;;5056593;28;19913;-74
2021/10/28 01:46:33;;;;;;;;;;;9.10;99.90;;;;;;5057499;28;19923;-74
2021/10/28 01:49:00;;;;;;;;;;;9.10;99.90;;;;;;5056650;28;19912;-74
2021/10/28 01:51:26;;;;;;;;;;;9.10;99.90;;;;;;5057008;28;20373;-74
2021/10/28 01:53:51;;;;;;;;;;;9.10;99.90;;;;;;5026094;28;19916;-74
2021/10/28 01:56:17;;;;;;;;;;;9.10;99.90;;;;;;5058021;28;20011;-74
2021/10/28 01:58:43;;;;;;;;;;;9.10;99.90;;;;;;5025731;28;20000;-74
2021/10/28 02:01:08;;;;;;;;;;;9.10;99.90;;;;;;5057316;28;19919;-74
2021/10/28 02:03:34;;;;;;;;;;;9.10;99.90;;;;;;5056629;28;19913;-74
2021/10/28 02:06:00;;;;;;;;;;;9.00;99.90;;;;;;5026412;28;20153;-74
2021/10/28 02:08:26;;;;;;;;;;;9.10;99.90;;;;;;5058437;28;19921;-74
2021/10/28 02:10:52;;;;;;;;;;;9.10;99.90;;;;;;5058574;28;19913;-74
2021/10/28 02:13:18;;;;;;;;;;;9.10;99.90;;;;;;5057798;28;20007;-75
2021/10/28 02:15:44;;;;;;;;;;;9.10;99.90;;;;;;5057340;28;19963;-74
2021/10/28 02:18:10;;;;;;;;;;;9.00;99.90;;;;;;5056987;28;20322;-74
2021/10/28 02:20:38;;;;;;;;;;;9.00;99.90;;;;;;5055394;28;19917;-74
2021/10/28 02:23:04;;;;;;;;;;;9.00;99.90;;;;;;5057203;28;19916;-74
2021/10/28 02:25:29;;;;;;;;;;;8.90;99.90;;;;;;5056034;28;19916;-75
2021/10/28 02:27:55;;;;;;;;;;;8.90;99.90;;;;;;5058008;28;19917;-74
2021/10/28 02:30:20;;;;;;;;;;;8.80;99.90;;;;;;5037405;28;20387;-74
2021/10/28 02:32:47;;;;;;;;;;;8.80;99.90;;;;;;5058019;28;19913;-74
2021/10/28 02:35:15;;;;;;;;;;;8.80;99.90;;;;;;5055049;28;19917;-75
2021/10/28 02:37:41;;;;;;;;;;;8.80;99.90;;;;;;5056045;28;19924;-75
2021/10/28 02:40:07;;;;;;;;;;;8.80;99.90;;;;;;5036236;28;19969;-74
2021/10/28 02:42:32;;;;;;;;;;;8.80;99.90;;;;;;5057516;28;19923;-75
2021/10/28 02:44:58;;;;;;;;;;;8.80;99.90;;;;;;5055220;28;20066;-75
2021/10/28 02:47:24;;;;;;;;;;;8.70;99.90;;;;;;5037648;28;19943;-75
2021/10/28 02:49:49;;;;;;;;;;;8.70;99.90;;;;;;5055548;28;19920;-74
2021/10/28 02:52:15;;;;;;;;;;;8.70;99.90;;;;;;5052310;28;19913;-74
2021/10/28 02:54:40;;;;;;;;;;;8.70;99.90;;;;;;5056364;28;20050;-74
2021/10/28 02:57:06;;;;;;;;;;;8.60;99.90;;;;;;5058668;28;20364;-74
2021/10/28 02:59:32;;;;;;;;;;;8.60;99.90;;;;;;5055493;28;19921;-74
2021/10/28 03:01:58;;;;;;;;;;;8.60;99.90;;;;;;5057235;28;19916;-74
2021/10/28 03:04:24;;;;;;;;;;;8.60;99.90;;;;;;5041264;28;19919;-74
2021/10/28 03:06:50;;;;;;;;;;;8.60;99.90;;;;;;5056329;28;20691;-75
2021/10/28 03:09:25;;;;;;;;;;;8.60;99.90;;;;;;5056819;28;19917;-75
2021/10/28 03:11:54;;;;;;;;;;;8.60;99.90;;;;;;5056183;28;20007;-74
2021/10/28 03:14:23;;;;;;;;;;;8.50;99.90;;;;;;5056409;28;19913;-75
2021/10/28 03:20:09;;;;;;;;;;;8.50;99.90;;;;;;4993080;28;20349;-74
2021/10/28 03:28:02;;;;;;;;;;;8.30;99.90;;;;;;5055524;28;19969;-74
2021/10/28 03:30:27;;;;;;;;;;;8.30;99.90;;;;;;5056231;28;19920;-75
2021/10/28 03:32:53;;;;;;;;;;;8.30;99.90;;;;;;5057043;28;19917;-74
2021/10/28 03:35:18;;;;;;;;;;;8.30;99.90;;;;;;5055109;28;19967;-74
2021/10/28 03:37:48;;;;;;;;;;;8.30;99.90;;;;;;5055714;28;20353;-74
2021/10/28 03:40:46;;;;;;;;;;;8.30;99.90;;;;;;5052608;28;20356;-74
2021/10/28 03:43:33;;;;;;;;;;;8.30;99.90;;;;;;5054869;28;19920;-74
2021/10/28 03:46:27;;;;;;;;;;;8.20;99.90;;;;;;5057226;28;19962;-74
2021/10/28 03:54:28;;;;;;;;;;;8.20;99.90;;;;;;5059838;28;20291;-74
2021/10/28 04:02:49;;;;;;;;;;;8.30;99.90;;;;;;5057707;28;20035;-74
2021/10/28 04:07:37;;;;;;;;;;;8.30;99.90;;;;;;5059690;28;19920;-74
2021/10/28 04:18:39;;;;;;;;;;;8.30;99.90;;;;;;5053638;28;19923;-73
2021/10/28 04:21:15;;;;;;;;;;;8.30;99.90;;;;;;5055863;28;19964;-73
2021/10/28 04:29:09;;;;;;;;;;;8.20;99.90;;;;;;5059555;28;19919;-74
2021/10/28 04:31:36;;;;;;;;;;;8.20;99.90;;;;;;5058295;28;19913;-74
2021/10/28 04:34:06;;;;;;;;;;;8.20;99.90;;;;;;5058791;28;20326;-74
2021/10/28 04:36:32;;;;;;;;;;;8.30;99.90;;;;;;5059069;28;19920;-72
2021/10/28 04:38:58;;;;;;;;;;;8.20;99.90;;;;;;5056979;28;20340;-72
2021/10/28 04:41:24;;;;;;;;;;;8.20;99.90;;;;;;5057541;28;19928;-75
2021/10/28 04:43:50;;;;;;;;;;;8.30;99.90;;;;;;5059584;28;20368;-75
2021/10/28 04:46:16;;;;;;;;;;;8.20;99.90;;;;;;5058731;28;19923;-75
2021/10/28 04:48:41;;;;;;;;;;;8.20;99.90;;;;;;5059217;28;19913;-72
2021/10/28 04:51:07;;;;;;;;;;;8.20;99.90;;;;;;5056467;28;19924;-76
2021/10/28 04:53:32;;;;;;;;;;;8.20;99.90;;;;;;5060011;28;20321;-78
2021/10/28 04:55:58;;;;;;;;;;;8.10;99.90;;;;;;5059040;28;19913;-73
2021/10/28 04:58:23;;;;;;;;;;;8.10;99.90;;;;;;5057685;28;19925;-75
2021/10/28 05:00:49;;;;;;;;;;;8.10;99.90;;;;;;5058100;28;19931;-71
2021/10/28 05:03:15;;;;;;;;;;;8.10;99.90;;;;;;5057026;28;19927;-70
2021/10/28 05:05:40;;;;;;;;;;;8.10;99.90;;;;;;5056730;28;20403;-70
2021/10/28 05:08:06;;;;;;;;;;;8.20;99.90;;;;;;5058289;28;20313;-71
2021/10/28 05:10:33;;;;;;;;;;;8.10;99.90;;;;;;5056266;28;19985;-71
2021/10/28 05:12:59;;;;;;;;;;;8.10;99.90;;;;;;5058729;28;20010;-71
2021/10/28 05:15:24;;;;;;;;;;;8.20;99.90;;;;;;5057424;28;20813;-71
2021/10/28 05:17:50;;;;;;;;;;;8.10;99.90;;;;;;5059386;28;19913;-71
2021/10/28 05:20:15;;;;;;;;;;;8.20;99.90;;;;;;5040790;28;19920;-71
2021/10/28 05:22:40;;;;;;;;;;;8.10;99.90;;;;;;5053534;28;20244;-76
2021/10/28 05:25:06;;;;;;;;;;;8.10;99.90;;;;;;5055828;28;19916;-77
2021/10/28 05:27:32;;;;;;;;;;;8.10;99.90;;;;;;5055467;28;19924;-70
2021/10/28 05:29:57;;;;;;;;;;;8.00;99.90;;;;;;5057264;28;20007;-70
2021/10/28 05:32:23;;;;;;;;;;;8.00;99.90;;;;;;5039041;28;20013;-71
2021/10/28 05:34:48;;;;;;;;;;;7.90;99.90;;;;;;5057409;28;20022;-71
2021/10/28 05:37:15;;;;;;;;;;;7.90;99.90;;;;;;5055103;28;19962;-70
2021/10/28 05:39:40;;;;;;;;;;;7.90;99.90;;;;;;5056448;28;19917;-70
2021/10/28 05:42:06;;;;;;;;;;;8.00;99.90;;;;;;5055729;28;19963;-70
2021/10/28 05:44:31;;;;;;;;;;;7.90;99.90;;;;;;5057687;28;19912;-71
2021/10/28 05:46:56;;;;;;;;;;;8.00;99.90;;;;;;5057376;28;19915;-71
2021/10/28 05:49:22;;;;;;;;;;;8.00;99.90;;;;;;5057191;28;19939;-71
2021/10/28 05:51:48;;;;;;;;;;;8.00;99.90;;;;;;5040043;28;19920;-71
2021/10/28 05:54:14;;;;;;;;;;;8.00;99.90;;;;;;5059184;28;19917;-71
2021/10/28 05:56:42;;;;;;;;;;;8.00;99.90;;;;;;5057385;28;20280;-71
2021/10/28 05:59:07;;;;;;;;;;;8.00;99.90;;;;;;5039775;28;19913;-71
2021/10/28 06:01:33;;;;;;;;;;;8.00;99.90;;;;;;5024170;28;19927;-71
2021/10/28 06:03:58;;;;;;;;;;;8.10;99.90;;;;;;5058811;28;19913;-71
2021/10/28 06:06:24;;;;;;;;;;;8.10;99.90;;;;;;5056061;28;19923;-70
2021/10/28 06:08:49;;;;;;;;;;;8.10;99.90;;;;;;5056530;28;19935;-70
2021/10/28 06:11:16;;;;;;;;;;;8.10;99.90;;;;;;5054494;28;20344;-71
2021/10/28 06:13:47;;;;;;;;;;;8.10;99.90;;;;;;5054241;28;19917;-72
2021/10/28 06:16:13;;;;;;;;;;;8.10;99.90;;;;;;5039345;28;19913;-73
2021/10/28 06:18:41;;;;;;;;;;;8.10;99.90;;;;;;5056055;28;19990;-73
2021/10/28 06:21:09;;;;;;;;;;;8.10;99.90;;;;;;5039262;28;19961;-74
2021/10/28 06:23:35;;;;;;;;;;;8.10;99.90;;;;;;5055792;28;19928;-74
2021/10/28 06:26:01;;;;;;;;;;;8.10;99.90;;;;;;5057509;28;19920;-73
2021/10/28 06:28:26;;;;;;;;;;;8.10;99.90;;;;;;5056175;28;19959;-73
2021/10/28 06:30:54;;;;;;;;;;;8.10;99.90;;;;;;5056658;28;20265;-73
2021/10/28 06:33:30;;;;;;;;;;;8.10;99.90;;;;;;5081571;27;19923;-64
2021/10/28 06:35:57;;;;;;;;;;;8.10;99.90;;;;;;5112865;27;20260;-64
2021/10/28 06:38:23;;;;;;;;;;;8.10;99.90;;;;;;5079355;28;20311;-64
2021/10/28 06:40:49;;;;;;;;;;;8.20;99.90;;;;;;5080820;28;19916;-64
2021/10/28 06:43:14;;;;;;;;;;;8.20;99.90;;;;;;5082758;28;19936;-64
2021/10/28 06:45:40;;;;;;;;;;;8.30;99.90;;;;;;5079597;28;20322;-64
2021/10/28 06:48:06;;;;;;;;;;;8.20;99.90;;;;;;5081682;28;20289;-64
2021/10/28 06:50:54;;;;;;;;;;;8.30;99.90;;;;;;5080055;28;20400;-64
2021/10/28 06:53:29;;;;;;;;;;;8.30;99.90;;;;;;5081729;28;19924;-64
2021/10/28 06:56:01;;;;;;;;;;;8.30;99.90;;;;;;5079995;28;19919;-64
2021/10/28 07:03:55;;;;;;;;;;;8.30;99.90;;;;;;5056841;28;20254;-62
2021/10/28 07:06:22;;;;;;;;;;;8.40;99.90;;;;;;5059261;28;20038;-62
2021/10/28 07:08:53;;;;;;;;;;;8.40;99.90;;;;;;5060821;28;20018;-62
2021/10/28 07:11:24;;;;;;;;;;;8.40;99.90;;;;;;5059487;28;19924;-62
2021/10/28 07:13:51;;;;;;;;;;;8.50;99.90;;;;;;5061460;28;19944;-62
2021/10/28 07:19:47;;;;;;;;;;;8.50;99.90;;;;;;5061767;28;20381;-62
2021/10/28 07:21:52;;;;;;;;;;;8.60;99.90;;;;;;5051113;28;20312;-62
2021/10/28 07:32:28;;;;;;;;;;;8.80;99.90;;;;;;5057611;28;19936;-63
2021/10/28 07:35:03;;;;;;;;;;;8.80;99.90;;;;;;5060358;28;19923;-62
2021/10/28 07:59:15;;;;;;;;;;;9.60;99.90;;;;;;5045605;28;19913;-62
2021/10/28 08:15:58;;;;;;;;;;;10.10;99.90;;;;;;5046536;28;19927;-62
2021/10/28 08:18:33;;;;;;;;;;;10.20;99.90;;;;;;5044874;28;19967;-62
2021/10/28 08:28:51;;;;;;;;;;;10.60;99.90;;;;;;5044017;28;20384;-62
2021/10/28 08:31:18;;;;;;;;;;;10.70;99.90;;;;;;5044900;28;20068;-62
2021/10/28 08:33:44;;;;;;;;;;;10.80;99.90;;;;;;5046755;28;19921;-62
2021/10/28 08:36:10;;;;;;;;;;;10.90;99.90;;;;;;5043302;28;20460;-63
2021/10/28 08:38:37;;;;;;;;;;;11.00;99.90;;;;;;5043718;28;19913;-63
2021/10/28 08:41:06;;;;;;;;;;;11.00;99.90;;;;;;5045224;28;20282;-62
2021/10/28 08:43:35;;;;;;;;;;;11.10;99.90;;;;;;5044080;28;19917;-62
2021/10/28 08:46:01;;;;;;;;;;;11.20;99.90;;;;;;5043748;28;19913;-62
2021/10/28 08:48:28;;;;;;;;;;;11.40;99.90;;;;;;5045315;28;20018;-62
2021/10/28 08:54:05;;;;;;;;;;;11.60;99.90;;;;;;5024909;28;19917;-62
2021/10/28 09:24:12;;;;;;;;;;;12.70;99.90;;;;;;5045103;28;19920;-63
2021/10/28 09:26:44;;;;;;;;;;;12.70;99.90;;;;;;5044048;28;20330;-61
2021/10/28 09:29:34;;;;;;;;;;;12.80;99.90;;;;;;5060192;28;20392;-63
2021/10/28 09:51:06;;;;;;;;;;;13.20;99.50;;;;;;5043866;28;19999;-63
2021/10/28 09:53:57;;;;;;;;;;;13.20;99.40;;;;;;5040849;28;19924;-62
2021/10/28 09:59:19;;;;;;;;;;;13.40;99.30;;;;;;5044464;28;19995;-62
2021/10/28 10:01:46;;;;;;;;;;;13.50;99.10;;;;;;5043732;28;19931;-63
2021/10/28 10:04:12;;;;;;;;;;;13.50;99.40;;;;;;5045613;28;20463;-62
2021/10/28 10:06:41;;;;;;;;;;;13.60;99.30;;;;;;5042305;28;19921;-62
2021/10/28 10:09:06;;;;;;;;;;;13.70;99.20;;;;;;5043467;28;19928;-62
2021/10/28 10:11:32;;;;;;;;;;;13.80;99.20;;;;;;5039132;28;19921;-63
2021/10/28 10:13:58;;;;;;;;;;;13.90;98.90;;;;;;5043860;28;19940;-62
2021/10/28 10:16:23;;;;;;;;;;;13.90;98.90;;;;;;5043463;28;19913;-63
2021/10/28 10:18:50;;;;;;;;;;;14.00;98.90;;;;;;5045108;28;19913;-63
2021/10/28 10:21:44;;;;;;;;;;;14.10;98.80;;;;;;5035153;28;20030;-62
2021/10/28 11:21:33;;;;;;;;;;;15.20;96.10;;;;;;5004669;28;20014;-63
2021/10/28 11:29:22;;;;;;;;;;;15.30;96.40;;;;;;5046471;28;19996;-63
2021/10/28 12:25:06;;;;;;;;;;;16.30;94.30;;;;;;5047759;28;20358;-63
2021/10/28 12:44:53;;;;;;;;;;;16.50;94.20;;;;;;5044941;28;20107;-63
2021/10/28 13:51:59;;;;;;;;;;;17.30;92.00;;;;;;4998814;28;19925;-64
2021/10/28 14:14:53;;;;;;;;;;;17.40;91.40;;;;;;4959403;28;20342;-64
2021/10/28 14:17:18;;;;;;;;;;;17.50;92.10;;;;;;5004086;28;19996;-64
2021/10/28 14:20:39;;;;;;;;;;;17.50;91.20;;;;;;5001194;28;20419;-64
2021/10/28 14:25:06;;;;;;;;;;;17.50;91.40;;;;;;5004293;28;19917;-64
2021/10/28 14:27:38;;;;;;;;;;;17.40;91.50;;;;;;5004140;28;19975;-64
2021/10/28 14:31:32;;;;;;;;;;;17.40;91.40;;;;;;5005334;28;19917;-64
2021/10/28 15:29:26;;;;;;;;;;;16.80;93.30;;;;;;5008510;28;19924;-64
2021/10/28 15:32:53;;;;;;;;;;;16.80;93.30;;;;;;5008166;28;20610;-64
2021/10/28 15:53:07;;;;;;;;;;;16.30;93.20;;;;;;5004430;28;19963;-63
2021/10/28 16:22:45;;;;;;;;;;;15.40;93.90;;;;;;5006542;28;19920;-62
2021/10/28 16:25:11;;;;;;;;;;;15.30;94.00;;;;;;5004862;28;20453;-63
2021/10/28 16:27:37;;;;;;;;;;;15.30;94.00;;;;;;5005590;28;19913;-62
2021/10/28 16:30:04;;;;;;;;;;;15.20;94.00;;;;;;5005553;28;19923;-62
2021/10/28 16:32:31;;;;;;;;;;;15.10;94.10;;;;;;5005783;28;20526;-62
2021/10/28 16:34:56;;;;;;;;;;;14.90;94.20;;;;;;5005068;28;19939;-62
2021/10/28 16:37:24;;;;;;;;;;;14.90;94.30;;;;;;5003689;28;19921;-62
2021/10/28 16:39:51;;;;;;;;;;;14.80;94.30;;;;;;4986460;28;19936;-62
2021/10/28 16:42:16;;;;;;;;;;;14.80;94.50;;;;;;5005318;28;20016;-61
2021/10/28 16:44:44;;;;;;;;;;;14.80;94.60;;;;;;5004046;28;20410;-63
2021/10/28 16:47:09;;;;;;;;;;;14.70;94.50;;;;;;5003247;28;19964;-62
2021/10/28 16:49:35;;;;;;;;;;;14.60;94.60;;;;;;5001992;28;19915;-63
2021/10/28 16:52:01;;;;;;;;;;;14.60;94.80;;;;;;5000784;28;20013;-63
2021/10/28 16:54:26;;;;;;;;;;;14.60;94.50;;;;;;5005822;28;20311;-62
2021/10/28 16:56:52;;;;;;;;;;;14.50;94.20;;;;;;5006287;28;19918;-62
2021/10/28 16:59:17;;;;;;;;;;;14.40;94.20;;;;;;5006691;28;19921;-63
2021/10/28 17:01:43;;;;;;;;;;;14.40;94.30;;;;;;5004667;28;19925;-64
2021/10/28 17:04:08;;;;;;;;;;;14.30;94.30;;;;;;5005308;28;20024;-63
2021/10/28 17:06:34;;;;;;;;;;;14.20;94.30;;;;;;5006309;28;20381;-63
2021/10/28 17:09:06;;;;;;;;;;;14.10;94.30;;;;;;5005688;28;20370;-63
2021/10/28 17:11:31;;;;;;;;;;;14.10;94.40;;;;;;5003237;28;19917;-63
2021/10/28 17:13:57;;;;;;;;;;;14.00;94.50;;;;;;5005470;28;19920;-65
2021/10/28 17:16:22;;;;;;;;;;;13.90;94.50;;;;;;5004638;28;19921;-65
2021/10/28 17:18:48;;;;;;;;;;;13.80;94.50;;;;;;5005370;28;19917;-64
2021/10/28 17:21:13;;;;;;;;;;;13.70;94.60;;;;;;5004438;28;19967;-63
2021/10/28 17:23:41;;;;;;;;;;;13.70;94.60;;;;;;5003306;28;20356;-63
2021/10/28 17:26:07;;;;;;;;;;;13.60;94.80;;;;;;4987373;28;19996;-63
2021/10/28 17:28:34;;;;;;;;;;;13.50;94.70;;;;;;4997618;28;20005;-64
2021/10/28 17:31:01;;;;;;;;;;;13.50;94.70;;;;;;5003417;28;20205;-64
2021/10/28 17:33:27;;;;;;;;;;;13.40;94.80;;;;;;5003587;28;19925;-63
2021/10/28 17:35:53;;;;;;;;;;;13.30;94.90;;;;;;4999553;28;19928;-64
2021/10/28 17:38:19;;;;;;;;;;;13.30;95.00;;;;;;5001958;28;20323;-63
2021/10/28 17:40:45;;;;;;;;;;;13.30;95.10;;;;;;4999886;28;19929;-63
2021/10/28 17:43:12;;;;;;;;;;;13.20;95.00;;;;;;5002247;28;20346;-63
2021/10/28 17:45:37;;;;;;;;;;;13.10;95.20;;;;;;4998255;28;19952;-62
2021/10/28 17:48:04;;;;;;;;;;;13.00;95.20;;;;;;5002411;28;19964;-63
2021/10/28 17:50:29;;;;;;;;;;;12.90;95.20;;;;;;5002061;28;19920;-63
2021/10/28 17:52:55;;;;;;;;;;;12.90;95.30;;;;;;5000260;28;19917;-63
2021/10/28 17:55:21;;;;;;;;;;;12.80;95.10;;;;;;5001032;28;19913;-63
2021/10/28 17:57:49;;;;;;;;;;;12.70;94.90;;;;;;5002242;28;19928;-63
2021/10/28 18:00:15;;;;;;;;;;;12.70;94.90;;;;;;5002644;28;20853;-63
2021/10/28 18:02:41;;;;;;;;;;;12.70;95.00;;;;;;5003020;28;19921;-63
2021/10/28 18:05:07;;;;;;;;;;;12.60;95.00;;;;;;4984825;28;19917;-62
2021/10/28 18:07:33;;;;;;;;;;;12.50;94.90;;;;;;4999692;28;19972;-63
2021/10/28 18:09:59;;;;;;;;;;;12.50;95.10;;;;;;4998163;28;20065;-63
2021/10/28 18:12:25;;;;;;;;;;;12.50;95.10;;;;;;5000326;28;19975;-63
2021/10/28 18:14:50;;;;;;;;;;;12.50;95.20;;;;;;4998379;28;20330;-63
2021/10/28 18:17:18;;;;;;;;;;;12.40;95.10;;;;;;4997980;28;19928;-63
2021/10/28 18:19:43;;;;;;;;;;;12.40;95.20;;;;;;4999703;28;20370;-62
2021/10/28 18:22:09;;;;;;;;;;;12.40;95.20;;;;;;5000762;28;19945;-63
2021/10/28 18:24:34;;;;;;;;;;;12.30;95.30;;;;;;5000498;28;20389;-63
2021/10/28 18:27:01;;;;;;;;;;;12.30;95.40;;;;;;5003039;28;19917;-63
2021/10/28 18:29:26;;;;;;;;;;;12.20;95.50;;;;;;5005035;28;19921;-62
2021/10/28 18:31:51;;;;;;;;;;;12.20;95.40;;;;;;5003756;28;19918;-63
2021/10/28 18:34:18;;;;;;;;;;;12.10;95.60;;;;;;5004111;28;20338;-63
2021/10/28 18:36:44;;;;;;;;;;;12.10;95.70;;;;;;5005019;28;19967;-63
2021/10/28 18:39:13;;;;;;;;;;;12.00;95.70;;;;;;5003043;28;19921;-64
2021/10/28 18:41:38;;;;;;;;;;;12.00;95.70;;;;;;5001558;28;20000;-64
2021/10/28 18:44:04;;;;;;;;;;;12.00;95.80;;;;;;5003549;28;20008;-63
2021/10/28 18:46:32;;;;;;;;;;;12.00;95.90;;;;;;5003109;28;20413;-63
2021/10/28 18:48:58;;;;;;;;;;;11.90;95.90;;;;;;5005667;28;19921;-64
2021/10/28 18:51:25;;;;;;;;;;;11.80;96.00;;;;;;5003765;28;19959;-64
2021/10/28 18:53:51;;;;;;;;;;;11.70;96.00;;;;;;5004734;28;19944;-64
2021/10/28 18:56:17;;;;;;;;;;;11.70;96.10;;;;;;5002007;28;19971;-64
2021/10/28 18:58:43;;;;;;;;;;;11.60;96.20;;;;;;5001026;28;20437;-64
2021/10/28 19:01:10;;;;;;;;;;;11.60;96.30;;;;;;4985532;28;19913;-63
2021/10/28 19:03:36;;;;;;;;;;;11.50;96.30;;;;;;5055703;22;20023;-64
2021/10/28 19:06:03;;;;;;;;;;;11.50;96.50;;;;;;5065163;28;19922;-65
2021/10/28 19:08:28;;;;;;;;;;;11.40;96.60;;;;;;5063551;28;19935;-63
2021/10/28 19:10:54;;;;;;;;;;;11.40;96.70;;;;;;5063286;28;19951;-64
2021/10/28 19:13:20;;;;;;;;;;;11.30;96.70;;;;;;5044287;28;19955;-62
2021/10/28 19:15:45;;;;;;;;;;;11.30;96.80;;;;;;5045694;28;19919;-63
2021/10/28 19:18:11;;;;;;;;;;;11.20;96.80;;;;;;5032978;28;19920;-63
2021/10/28 19:20:37;;;;;;;;;;;11.20;96.90;;;;;;5044426;28;19913;-63
2021/10/28 19:23:03;;;;;;;;;;;11.20;97.00;;;;;;5044482;28;19909;-63
2021/10/28 19:25:29;;;;;;;;;;;11.10;97.00;;;;;;5046618;28;19996;-63
2021/10/28 19:27:55;;;;;;;;;;;11.10;97.10;;;;;;5045754;28;19909;-64
2021/10/28 19:32:46;;;;;;;;;;;11.00;97.20;;;;;;5045928;28;19924;-62
2021/10/28 19:35:12;;;;;;;;;;;11.00;97.30;;;;;;5048606;28;19912;-63
2021/10/28 19:46:09;;;;;;;;;;;10.80;97.50;;;;;;5052619;28;19909;-63
2021/10/28 19:48:17;;;;;;;;;;;10.80;97.50;;;;;;5045269;28;20376;-63
2021/10/28 19:50:43;;;;;;;;;;;10.70;97.60;;;;;;5051384;28;19924;-63
2021/10/28 19:53:09;;;;;;;;;;;10.70;97.60;;;;;;5032854;28;19913;-63
2021/10/28 19:55:35;;;;;;;;;;;10.70;97.60;;;;;;5050739;28;19958;-63
2021/10/28 19:58:01;;;;;;;;;;;10.60;97.70;;;;;;5048976;28;19916;-63
2021/10/28 20:21:11;;;;;;;;;;;10.30;98.20;;;;;;5045663;28;19955;-62
2021/10/28 20:23:38;;;;;;;;;;;10.20;98.30;;;;;;5062916;28;19923;-62
2021/10/28 20:26:03;;;;;;;;;;;10.20;98.40;;;;;;5056749;28;19912;-62
2021/10/28 20:28:29;;;;;;;;;;;10.10;98.50;;;;;;5054243;28;19919;-62
2021/10/28 20:30:58;;;;;;;;;;;10.10;98.50;;;;;;5045780;28;19913;-62
2021/10/28 20:33:25;;;;;;;;;;;10.10;98.60;;;;;;5053037;28;19978;-62
2021/10/28 20:38:16;;;;;;;;;;;10.10;98.90;;;;;;5046950;28;19971;-62
2021/10/28 20:40:42;;;;;;;;;;;10.10;99.00;;;;;;5047160;28;20046;-62
2021/10/28 20:43:07;;;;;;;;;;;10.20;98.90;;;;;;5049285;28;20273;-63
2021/10/28 20:45:33;;;;;;;;;;;10.20;98.80;;;;;;5045128;28;20003;-62
2021/10/28 20:47:58;;;;;;;;;;;10.30;98.90;;;;;;5047956;28;19921;-62
2021/10/28 20:50:25;;;;;;;;;;;10.30;98.70;;;;;;5051165;28;19947;-62
2021/10/28 20:52:51;;;;;;;;;;;10.30;98.60;;;;;;5049946;28;20276;-62
2021/10/28 20:55:16;;;;;;;;;;;10.30;98.70;;;;;;5043308;28;19995;-62
2021/10/28 20:57:42;;;;;;;;;;;10.20;98.70;;;;;;5048227;28;19919;-62
2021/10/28 21:00:09;;;;;;;;;;;10.10;98.90;;;;;;5046375;28;19921;-62
2021/10/28 21:02:35;;;;;;;;;;;10.10;99.10;;;;;;5051116;28;20304;-62
2021/10/28 21:05:03;;;;;;;;;;;10.00;99.30;;;;;;5054523;28;19920;-62
2021/10/28 21:07:28;;;;;;;;;;;10.00;99.20;;;;;;5059159;28;19912;-62
2021/10/28 21:09:54;;;;;;;;;;;10.00;99.10;;;;;;5050099;28;19966;-62
2021/10/28 21:12:20;;;;;;;;;;;10.00;99.10;;;;;;5049477;28;19925;-62
2021/10/28 21:14:46;;;;;;;;;;;10.00;99.10;;;;;;5036011;28;19923;-62
2021/10/28 21:17:11;;;;;;;;;;;10.00;99.10;;;;;;5049842;28;19975;-62
2021/10/28 21:19:37;;;;;;;;;;;9.90;99.10;;;;;;5046483;28;19955;-62
2021/10/28 21:22:03;;;;;;;;;;;9.90;99.20;;;;;;5045772;28;19928;-61
2021/10/28 21:24:28;;;;;;;;;;;9.90;99.20;;;;;;5046076;28;19919;-62
2021/10/28 21:26:54;;;;;;;;;;;9.80;99.10;;;;;;5045616;28;20365;-62
2021/10/28 21:29:20;;;;;;;;;;;9.70;99.20;;;;;;5050649;28;20027;-62
2021/10/28 21:31:45;;;;;;;;;;;9.70;99.30;;;;;;5045390;28;19917;-62
2021/10/28 21:34:10;;;;;;;;;;;9.60;99.40;;;;;;5046401;28;19916;-62
2021/10/28 21:36:38;;;;;;;;;;;9.60;99.40;;;;;;5049761;28;20008;-63
2021/10/28 21:39:03;;;;;;;;;;;9.60;99.60;;;;;;5049689;28;19920;-61
2021/10/28 21:41:29;;;;;;;;;;;9.50;99.40;;;;;;5045830;28;19913;-61
2021/10/28 21:43:54;;;;;;;;;;;9.50;99.40;;;;;;5044196;28;19917;-62
2021/10/28 21:46:20;;;;;;;;;;;9.50;99.30;;;;;;5050772;28;20034;-62
2021/10/28 21:48:47;;;;;;;;;;;9.60;99.10;;;;;;5054586;28;19924;-62
2021/10/28 21:51:14;;;;;;;;;;;9.60;98.90;;;;;;5046545;28;21034;-61
2021/10/28 21:53:41;;;;;;;;;;;9.60;98.90;;;;;;5051390;28;20035;-61
2021/10/28 21:56:15;;;;;;;;;;;9.50;98.80;;;;;;5049976;28;20462;-62
2021/10/28 21:58:56;;;;;;;;;;;9.50;98.70;;;;;;5027446;28;19987;-61
2021/10/28 22:25:21;;;;;;;;;;;9.20;98.90;;;;;;5052597;28;19924;-62
2021/10/28 22:27:47;;;;;;;;;;;9.20;98.90;;;;;;5050887;28;19917;-62
2021/10/28 22:30:13;;;;;;;;;;;9.10;98.90;;;;;;5044879;28;20031;-62
2021/10/28 22:32:40;;;;;;;;;;;9.00;99.00;;;;;;5044342;28;20321;-62
2021/10/28 22:35:09;;;;;;;;;;;9.00;99.00;;;;;;5045040;28;19916;-62
2021/10/28 22:37:46;;;;;;;;;;;8.90;99.00;;;;;;5049327;28;19917;-62
2021/10/28 22:42:38;;;;;;;;;;;8.80;99.20;;;;;;5043157;28;19913;-62
2021/10/28 22:45:04;;;;;;;;;;;8.80;99.20;;;;;;5044705;28;20343;-62
2021/10/28 22:47:30;;;;;;;;;;;8.70;99.30;;;;;;5045753;28;19941;-62
2021/10/28 22:49:56;;;;;;;;;;;8.70;99.30;;;;;;5031427;28;20389;-62
2021/10/28 22:54:48;;;;;;;;;;;8.60;99.40;;;;;;5045420;28;20434;-62
2021/10/28 22:57:21;;;;;;;;;;;8.60;99.40;;;;;;5046273;28;20437;-62
2021/10/28 22:59:47;;;;;;;;;;;8.60;99.60;;;;;;5045560;28;19947;-62
2021/10/28 23:07:51;;;;;;;;;;;8.50;99.60;;;;;;5045576;28;20000;-62
2021/10/28 23:20:48;;;;;;;;;;;8.30;99.80;;;;;;5054291;28;20395;-62
2021/10/28 23:23:15;;;;;;;;;;;8.20;99.70;;;;;;5048890;28;19948;-62
2021/10/28 23:25:40;;;;;;;;;;;8.20;99.80;;;;;;5040328;28;20078;-62
2021/10/28 23:28:06;;;;;;;;;;;8.20;99.80;;;;;;5048520;28;20555;-61
2021/10/28 23:30:31;;;;;;;;;;;8.20;99.90;;;;;;5045797;28;20004;-62
2021/10/28 23:32:58;;;;;;;;;;;8.20;99.80;;;;;;5048245;28;20456;-62
2021/10/28 23:35:24;;;;;;;;;;;8.10;99.90;;;;;;5048916;28;19921;-62
2021/10/28 23:37:49;;;;;;;;;;;8.10;99.90;;;;;;5048480;28;19939;-62
2021/10/28 23:40:15;;;;;;;;;;;8.10;99.90;;;;;;5050827;28;19967;-62
2021/10/28 23:42:40;;;;;;;;;;;8.10;99.90;;;;;;5046135;28;19921;-61
2021/10/28 23:45:06;;;;;;;;;;;8.10;99.90;;;;;;5053353;28;19912;-61
2021/10/28 23:47:31;;;;;;;;;;;8.00;99.90;;;;;;5046136;28;20262;-61